Time;durP1;ratioP1;P1;durP2;ratioP2;P2;SDS_P1;SDS_P2;PMS_P1;PMS_P2;Temp;Humidity;BMP_temperature;BMP_pressure;BME280_temperature;BME280_humidity;BME280_pressure;Samples;Min_cycle;Max_cycle;Signal;HPM_P1;HPM_P2
2024/03/10 00:00:39;;;;;;;27.38;19.92;;;;;;;;;;5019741;28;25108;-65
2024/03/10 00:03:09;;;;;;;28.30;18.88;;;;;;;;;;5018311;28;25074;-65
2024/03/10 00:05:35;;;;;;;26.63;19.02;;;;;;;;;;5011473;28;25102;-64
2024/03/10 00:08:01;;;;;;;26.58;19.00;;;;;;;;;;5012646;28;25113;-65
2024/03/10 00:10:28;;;;;;;27.92;19.20;;;;;;;;;;5011255;28;25058;-66
2024/03/10 00:12:55;;;;;;;29.55;20.40;;;;;;;;;;5016657;28;25062;-66
2024/03/10 00:15:21;;;;;;;29.95;19.45;;;;;;;;;;5017725;28;25142;-65
2024/03/10 00:17:47;;;;;;;27.98;19.67;;;;;;;;;;5015894;28;25143;-64
2024/03/10 00:20:13;;;;;;;30.13;20.35;;;;;;;;;;5013043;28;25165;-66
2024/03/10 00:22:40;;;;;;;28.02;18.95;;;;;;;;;;5024178;28;25108;-66
2024/03/10 00:25:09;;;;;;;26.58;19.08;;;;;;;;;;5020500;28;25088;-67
2024/03/10 00:27:38;;;;;;;29.27;20.25;;;;;;;;;;5017525;28;25143;-64
2024/03/10 00:30:05;;;;;;;29.25;19.75;;;;;;;;;;5011857;28;25120;-65
2024/03/10 00:32:35;;;;;;;26.73;21.02;;;;;;;;;;5014758;28;25143;-64
2024/03/10 00:35:01;;;;;;;25.85;18.25;;;;;;;;;;5023527;28;25090;-64
2024/03/10 00:37:28;;;;;;;26.90;18.73;;;;;;;;;;5017167;28;25082;-64
2024/03/10 00:39:54;;;;;;;26.60;19.52;;;;;;;;;;5025062;28;25094;-66
2024/03/10 00:42:23;;;;;;;26.95;19.15;;;;;;;;;;5022582;28;25057;-64
2024/03/10 00:44:50;;;;;;;29.10;20.40;;;;;;;;;;5007181;28;25052;-64
2024/03/10 00:47:16;;;;;;;30.40;18.83;;;;;;;;;;5024235;28;25077;-65
2024/03/10 00:49:42;;;;;;;28.88;19.20;;;;;;;;;;5016895;28;25061;-65
2024/03/10 00:52:09;;;;;;;26.13;18.23;;;;;;;;;;5014549;28;25053;-67
2024/03/10 00:54:35;;;;;;;30.13;20.05;;;;;;;;;;5015837;28;25084;-68
2024/03/10 00:57:02;;;;;;;30.92;18.70;;;;;;;;;;5022391;28;25125;-66
2024/03/10 00:59:28;;;;;;;30.58;20.30;;;;;;;;;;5012264;28;25145;-65
2024/03/10 01:01:54;;;;;;;28.98;19.58;;;;;;;;;;5021922;28;25059;-68
2024/03/10 01:04:19;;;;;;;29.08;19.15;;;;;;;;;;5017885;28;25129;-65
2024/03/10 01:06:45;;;;;;;30.83;20.02;;;;;;;;;;5024498;28;25073;-65
2024/03/10 01:09:13;;;;;;;28.67;19.60;;;;;;;;;;5029695;28;25078;-65
2024/03/10 01:11:42;;;;;;;30.95;18.90;;;;;;;;;;5036611;28;25046;-64
2024/03/10 01:14:11;;;;;;;28.33;20.00;;;;;;;;;;5044117;28;25073;-64
2024/03/10 01:16:37;;;;;;;27.10;18.35;;;;;;;;;;5051420;28;25051;-66
2024/03/10 01:19:03;;;;;;;25.48;18.00;;;;;;;;;;5041332;28;25066;-65
2024/03/10 01:21:29;;;;;;;27.23;18.38;;;;;;;;;;5028639;28;25065;-66
2024/03/10 01:23:55;;;;;;;23.83;17.23;;;;;;;;;;5018106;28;25145;-63
2024/03/10 01:26:21;;;;;;;24.73;17.77;;;;;;;;;;5017860;28;25054;-67
2024/03/10 01:28:47;;;;;;;25.63;17.95;;;;;;;;;;5014802;28;25070;-65
2024/03/10 01:31:13;;;;;;;27.50;19.55;;;;;;;;;;5009907;28;25059;-63
2024/03/10 01:33:39;;;;;;;26.70;18.52;;;;;;;;;;5016816;28;25069;-65
2024/03/10 01:36:06;;;;;;;26.73;18.85;;;;;;;;;;5015562;28;25078;-64
2024/03/10 01:38:32;;;;;;;25.65;17.40;;;;;;;;;;5015932;28;25068;-65
2024/03/10 01:40:59;;;;;;;27.42;16.73;;;;;;;;;;5015590;28;25070;-66
2024/03/10 01:43:25;;;;;;;26.52;17.73;;;;;;;;;;5016882;28;25072;-65
2024/03/10 01:46:06;;;;;;;26.42;17.02;;;;;;;;;;5016757;28;25069;-65
2024/03/10 01:48:34;;;;;;;27.02;17.95;;;;;;;;;;5014008;28;25052;-64
2024/03/10 01:51:00;;;;;;;27.98;17.52;;;;;;;;;;5021494;28;25129;-66
2024/03/10 01:53:30;;;;;;;27.80;18.50;;;;;;;;;;5013118;28;25091;-64
2024/03/10 01:55:56;;;;;;;24.67;17.63;;;;;;;;;;5018755;28;25053;-64
2024/03/10 01:58:23;;;;;;;27.17;17.92;;;;;;;;;;5015550;28;25083;-64
2024/03/10 02:00:52;;;;;;;27.35;18.10;;;;;;;;;;5017521;28;25154;-66
2024/03/10 02:03:18;;;;;;;28.50;18.35;;;;;;;;;;5012497;28;25062;-67
2024/03/10 02:05:46;;;;;;;23.95;18.08;;;;;;;;;;5011890;28;25076;-64
2024/03/10 02:08:14;;;;;;;27.35;18.00;;;;;;;;;;5010660;28;25056;-65
2024/03/10 02:10:41;;;;;;;27.83;16.65;;;;;;;;;;5011908;28;25109;-64
2024/03/10 02:13:07;;;;;;;24.20;17.35;;;;;;;;;;5011650;28;25112;-65
2024/03/10 02:15:32;;;;;;;23.50;17.58;;;;;;;;;;5022666;28;25130;-64
2024/03/10 02:17:58;;;;;;;26.85;17.85;;;;;;;;;;5016631;28;25104;-65
2024/03/10 02:20:26;;;;;;;27.60;18.65;;;;;;;;;;5012559;28;25058;-67
2024/03/10 02:22:52;;;;;;;27.17;19.08;;;;;;;;;;5007049;28;25094;-65
2024/03/10 02:25:22;;;;;;;27.92;19.00;;;;;;;;;;5010576;28;25074;-66
2024/03/10 02:27:50;;;;;;;28.75;18.63;;;;;;;;;;5018893;28;25075;-65
2024/03/10 02:30:19;;;;;;;26.40;19.23;;;;;;;;;;5005557;28;25067;-65
2024/03/10 02:49:18;;;;;;;26.00;18.67;;;;;;;;;;4998552;28;25119;-65
2024/03/10 02:51:44;;;;;;;29.70;20.92;;;;;;;;;;4993820;28;25117;-65
2024/03/10 02:54:11;;;;;;;30.60;19.75;;;;;;;;;;4991662;28;25055;-65
2024/03/10 02:56:37;;;;;;;25.08;18.30;;;;;;;;;;4993991;28;25066;-66
2024/03/10 02:59:03;;;;;;;24.50;18.08;;;;;;;;;;4992932;28;25045;-64
2024/03/10 03:01:30;;;;;;;31.10;19.33;;;;;;;;;;4996403;28;25060;-66
2024/03/10 03:03:56;;;;;;;29.52;19.15;;;;;;;;;;4998003;28;25085;-65
2024/03/10 03:06:22;;;;;;;28.95;18.73;;;;;;;;;;4990968;28;25150;-65
2024/03/10 03:08:48;;;;;;;28.08;18.85;;;;;;;;;;5001092;28;25133;-64
2024/03/10 03:11:15;;;;;;;34.65;21.00;;;;;;;;;;4998673;28;25061;-67
2024/03/10 03:13:41;;;;;;;32.38;19.38;;;;;;;;;;4995802;28;25058;-63
2024/03/10 03:16:09;;;;;;;24.23;18.30;;;;;;;;;;5001172;28;25089;-63
2024/03/10 03:18:35;;;;;;;28.48;20.08;;;;;;;;;;5003522;28;25102;-66
2024/03/10 03:21:01;;;;;;;32.45;20.42;;;;;;;;;;5003701;28;25109;-66
2024/03/10 03:23:27;;;;;;;28.92;19.25;;;;;;;;;;5007114;28;25164;-65
2024/03/10 03:25:53;;;;;;;30.35;20.27;;;;;;;;;;5005071;28;25054;-64
2024/03/10 03:28:20;;;;;;;27.98;19.00;;;;;;;;;;5022360;28;25068;-64
2024/03/10 03:30:47;;;;;;;27.10;18.42;;;;;;;;;;5021845;28;25063;-65
2024/03/10 03:33:14;;;;;;;26.95;19.98;;;;;;;;;;5004426;28;25063;-65
2024/03/10 03:35:40;;;;;;;31.75;19.05;;;;;;;;;;5020642;28;25090;-65
2024/03/10 03:38:06;;;;;;;25.83;18.45;;;;;;;;;;5019046;28;25065;-67
2024/03/10 03:40:32;;;;;;;28.65;18.95;;;;;;;;;;5006421;28;25062;-65
2024/03/10 03:42:58;;;;;;;30.15;20.38;;;;;;;;;;5009549;28;25071;-65
2024/03/10 03:45:24;;;;;;;27.02;18.55;;;;;;;;;;5005029;28;25054;-66
2024/03/10 03:47:51;;;;;;;29.88;19.10;;;;;;;;;;4996599;28;25161;-65
2024/03/10 03:50:17;;;;;;;27.05;18.05;;;;;;;;;;4998994;28;25068;-64
2024/03/10 03:52:43;;;;;;;25.27;18.45;;;;;;;;;;4995183;28;25082;-65
2024/03/10 03:55:12;;;;;;;25.77;18.23;;;;;;;;;;4996970;28;25058;-65
2024/03/10 03:57:37;;;;;;;25.13;18.33;;;;;;;;;;4993259;28;25146;-61
2024/03/10 04:00:05;;;;;;;27.25;19.75;;;;;;;;;;4996174;28;25100;-65
2024/03/10 04:02:31;;;;;;;26.73;18.60;;;;;;;;;;4992273;28;25156;-66
2024/03/10 04:04:57;;;;;;;28.55;20.35;;;;;;;;;;4992692;28;25060;-67
2024/03/10 04:07:23;;;;;;;23.65;17.88;;;;;;;;;;4997747;28;25051;-66
2024/03/10 04:09:50;;;;;;;27.25;18.95;;;;;;;;;;4996371;28;25091;-65
2024/03/10 04:12:16;;;;;;;31.42;19.88;;;;;;;;;;4996352;28;25065;-65
2024/03/10 04:14:42;;;;;;;27.52;19.63;;;;;;;;;;4994889;28;25158;-65
2024/03/10 04:17:08;;;;;;;27.42;17.90;;;;;;;;;;5001456;28;25107;-65
2024/03/10 04:19:35;;;;;;;26.42;19.33;;;;;;;;;;4997706;28;25157;-64
2024/03/10 04:22:02;;;;;;;28.27;19.48;;;;;;;;;;5003440;28;25089;-65
2024/03/10 04:24:28;;;;;;;28.25;19.67;;;;;;;;;;4992805;28;25068;-64
2024/03/10 04:26:54;;;;;;;26.77;18.77;;;;;;;;;;4992143;28;25113;-65
2024/03/10 04:29:20;;;;;;;27.25;19.67;;;;;;;;;;4993014;28;25087;-64
2024/03/10 04:31:46;;;;;;;28.90;19.30;;;;;;;;;;5001920;28;25048;-65
2024/03/10 04:34:12;;;;;;;27.45;19.75;;;;;;;;;;4995884;28;25068;-65
2024/03/10 04:36:39;;;;;;;30.98;21.15;;;;;;;;;;4996650;28;25152;-66
2024/03/10 04:39:05;;;;;;;26.98;19.25;;;;;;;;;;4995051;28;25052;-64
2024/03/10 04:41:31;;;;;;;26.02;18.95;;;;;;;;;;4996702;28;25066;-66
2024/03/10 04:43:57;;;;;;;29.92;20.10;;;;;;;;;;4991660;28;25070;-67
2024/03/10 04:46:23;;;;;;;25.88;18.80;;;;;;;;;;4994581;28;25068;-66
2024/03/10 04:48:57;;;;;;;30.55;19.58;;;;;;;;;;4994417;28;25091;-67
2024/03/10 04:51:24;;;;;;;28.13;18.73;;;;;;;;;;4996454;28;25097;-66
2024/03/10 04:53:50;;;;;;;27.48;19.17;;;;;;;;;;4993089;28;25142;-66
2024/03/10 04:56:16;;;;;;;29.73;20.65;;;;;;;;;;4990593;28;25159;-64
2024/03/10 04:58:43;;;;;;;29.25;19.25;;;;;;;;;;5000455;28;25051;-65
2024/03/10 05:01:12;;;;;;;25.15;17.98;;;;;;;;;;5000759;28;25050;-66
2024/03/10 05:03:39;;;;;;;28.27;19.33;;;;;;;;;;4998144;28;25101;-62
2024/03/10 05:06:06;;;;;;;29.60;19.17;;;;;;;;;;5004948;28;25059;-66
2024/03/10 05:08:33;;;;;;;27.45;19.02;;;;;;;;;;4996320;28;25147;-66
2024/03/10 05:11:00;;;;;;;30.67;19.98;;;;;;;;;;4995113;28;25065;-66
2024/03/10 05:13:26;;;;;;;26.92;18.75;;;;;;;;;;4997195;28;25085;-66
2024/03/10 05:15:52;;;;;;;32.05;20.92;;;;;;;;;;4997290;28;25063;-67
2024/03/10 05:18:18;;;;;;;30.05;20.33;;;;;;;;;;4991870;28;25152;-65
2024/03/10 05:20:44;;;;;;;34.05;21.00;;;;;;;;;;4995595;28;25075;-64
2024/03/10 05:23:10;;;;;;;31.58;21.63;;;;;;;;;;4991158;28;25106;-65
2024/03/10 05:25:36;;;;;;;31.52;21.15;;;;;;;;;;5000852;28;25071;-65
2024/03/10 05:28:02;;;;;;;30.98;21.77;;;;;;;;;;4997717;28;25093;-65
2024/03/10 05:30:28;;;;;;;30.23;21.05;;;;;;;;;;4992707;28;25172;-65
2024/03/10 05:32:54;;;;;;;31.45;21.77;;;;;;;;;;4989227;28;25078;-65
2024/03/10 05:35:20;;;;;;;33.60;23.02;;;;;;;;;;5000020;28;25056;-67
2024/03/10 05:37:46;;;;;;;31.23;21.95;;;;;;;;;;5004496;28;25064;-66
2024/03/10 05:40:12;;;;;;;33.03;23.00;;;;;;;;;;5012064;28;25078;-66
2024/03/10 05:42:38;;;;;;;29.63;21.55;;;;;;;;;;5023990;28;25067;-65
2024/03/10 05:45:06;;;;;;;31.67;22.65;;;;;;;;;;5018601;28;25059;-65
2024/03/10 05:47:32;;;;;;;32.72;21.85;;;;;;;;;;5007994;28;25080;-66
2024/03/10 05:49:58;;;;;;;31.98;23.33;;;;;;;;;;5005092;28;25093;-65
2024/03/10 05:52:26;;;;;;;31.05;20.85;;;;;;;;;;4994684;28;25068;-66
2024/03/10 05:54:52;;;;;;;34.30;23.17;;;;;;;;;;5001519;28;25066;-64
2024/03/10 05:57:18;;;;;;;32.00;22.77;;;;;;;;;;4991952;28;25056;-66
2024/03/10 05:59:44;;;;;;;33.58;22.98;;;;;;;;;;4993540;28;25052;-65
2024/03/10 06:02:13;;;;;;;34.58;23.25;;;;;;;;;;4992919;28;25069;-66
2024/03/10 06:04:39;;;;;;;36.65;23.23;;;;;;;;;;4996501;28;25055;-68
2024/03/10 06:07:06;;;;;;;34.05;24.05;;;;;;;;;;4994654;28;25055;-66
2024/03/10 06:09:34;;;;;;;35.60;24.45;;;;;;;;;;4997715;28;25050;-65
2024/03/10 06:12:00;;;;;;;35.40;23.55;;;;;;;;;;4997942;28;25051;-67
2024/03/10 06:14:26;;;;;;;31.48;22.55;;;;;;;;;;4994027;28;25064;-66
2024/03/10 06:16:53;;;;;;;34.17;23.67;;;;;;;;;;4993712;28;25111;-67
2024/03/10 06:27:34;;;;;;;35.95;24.20;;;;;;;;;;4996901;28;25055;-64
2024/03/10 06:29:59;;;;;;;33.08;23.92;;;;;;;;;;5000166;28;25061;-66
2024/03/10 06:32:25;;;;;;;34.47;23.17;;;;;;;;;;4994023;28;25074;-64
2024/03/10 06:34:52;;;;;;;32.90;22.75;;;;;;;;;;4998459;28;25084;-66
2024/03/10 06:37:19;;;;;;;36.25;23.98;;;;;;;;;;4992107;28;25105;-66
2024/03/10 06:39:45;;;;;;;33.25;23.00;;;;;;;;;;4990303;28;25056;-64
2024/03/10 06:42:11;;;;;;;33.45;24.05;;;;;;;;;;4997122;28;25079;-66
2024/03/10 06:44:37;;;;;;;28.75;21.10;;;;;;;;;;4995066;28;25061;-65
2024/03/10 06:47:04;;;;;;;33.35;23.23;;;;;;;;;;4996121;28;25055;-66
2024/03/10 06:49:30;;;;;;;35.72;23.50;;;;;;;;;;5004500;28;25098;-65
2024/03/10 06:51:57;;;;;;;36.00;23.13;;;;;;;;;;5017195;28;25071;-66
2024/03/10 06:54:23;;;;;;;32.67;22.95;;;;;;;;;;5003592;28;25064;-66
2024/03/10 06:56:50;;;;;;;33.95;23.08;;;;;;;;;;4999657;28;25077;-66
2024/03/10 06:59:16;;;;;;;30.50;21.77;;;;;;;;;;5005305;28;25107;-66
2024/03/10 07:01:45;;;;;;;31.60;21.60;;;;;;;;;;5004817;28;25065;-65
2024/03/10 07:04:11;;;;;;;31.70;23.08;;;;;;;;;;4999637;28;25089;-66
2024/03/10 07:06:40;;;;;;;34.58;22.92;;;;;;;;;;5004633;28;25190;-65
2024/03/10 07:09:09;;;;;;;31.60;21.50;;;;;;;;;;4995865;28;25053;-66
2024/03/10 07:11:40;;;;;;;34.20;21.73;;;;;;;;;;4998307;28;25057;-66
2024/03/10 07:14:06;;;;;;;32.73;24.30;;;;;;;;;;4995871;28;25143;-68
2024/03/10 07:16:32;;;;;;;34.88;23.30;;;;;;;;;;4998029;28;25097;-64
2024/03/10 07:18:58;;;;;;;30.67;22.02;;;;;;;;;;5000005;28;25119;-67
2024/03/10 07:21:25;;;;;;;33.15;23.38;;;;;;;;;;4999299;28;25056;-65
2024/03/10 07:23:51;;;;;;;35.83;23.95;;;;;;;;;;5001223;28;25067;-66
2024/03/10 07:26:17;;;;;;;31.80;22.75;;;;;;;;;;4998192;28;25094;-66
2024/03/10 07:28:43;;;;;;;36.00;23.27;;;;;;;;;;4997994;28;25096;-66
2024/03/10 07:31:09;;;;;;;34.60;24.85;;;;;;;;;;5004228;28;25068;-67
2024/03/10 07:33:37;;;;;;;37.05;24.88;;;;;;;;;;4993867;28;25153;-65
2024/03/10 07:36:04;;;;;;;36.17;25.55;;;;;;;;;;5021079;28;25077;-66
2024/03/10 07:38:30;;;;;;;36.25;24.63;;;;;;;;;;5005609;28;25135;-69
2024/03/10 07:40:57;;;;;;;39.65;25.38;;;;;;;;;;5010085;28;25093;-68
2024/03/10 07:43:23;;;;;;;34.92;24.38;;;;;;;;;;5014934;28;25177;-65
2024/03/10 07:45:50;;;;;;;36.78;25.75;;;;;;;;;;5012442;28;25205;-67
2024/03/10 07:48:16;;;;;;;37.63;25.02;;;;;;;;;;5015640;28;25112;-66
2024/03/10 07:50:43;;;;;;;34.08;25.17;;;;;;;;;;5019767;28;25071;-66
2024/03/10 07:53:09;;;;;;;38.47;24.83;;;;;;;;;;5019081;28;25059;-66
2024/03/10 07:55:36;;;;;;;35.28;24.50;;;;;;;;;;5020265;28;25090;-66
2024/03/10 07:58:05;;;;;;;36.60;25.25;;;;;;;;;;5016145;28;25114;-62
2024/03/10 08:00:31;;;;;;;34.47;24.55;;;;;;;;;;5035366;28;25120;-63
2024/03/10 08:02:57;;;;;;;35.88;24.67;;;;;;;;;;5040688;28;25095;-63
2024/03/10 08:05:25;;;;;;;35.90;24.40;;;;;;;;;;5033497;28;25098;-64
2024/03/10 08:07:52;;;;;;;34.25;24.95;;;;;;;;;;5023496;28;25044;-64
2024/03/10 08:10:18;;;;;;;35.38;23.48;;;;;;;;;;5015378;28;25140;-64
2024/03/10 08:12:45;;;;;;;36.90;25.38;;;;;;;;;;5008243;28;25080;-65
2024/03/10 08:15:12;;;;;;;34.00;24.10;;;;;;;;;;5022221;28;25072;-65
2024/03/10 08:17:43;;;;;;;35.70;23.17;;;;;;;;;;5014588;28;25113;-64
2024/03/10 08:20:13;;;;;;;36.60;24.58;;;;;;;;;;5020077;28;25124;-62
2024/03/10 08:22:40;;;;;;;34.03;23.00;;;;;;;;;;5017917;28;25154;-64
2024/03/10 08:25:06;;;;;;;31.83;21.38;;;;;;;;;;5027406;28;25074;-65
2024/03/10 08:27:36;;;;;;;35.65;23.45;;;;;;;;;;5016219;28;25078;-67
2024/03/10 08:30:09;;;;;;;31.00;21.27;;;;;;;;;;5019476;28;25053;-67
2024/03/10 08:32:36;;;;;;;33.97;22.35;;;;;;;;;;5019365;28;25144;-67
2024/03/10 08:35:09;;;;;;;33.58;22.05;;;;;;;;;;5015881;28;25146;-65
2024/03/10 08:37:39;;;;;;;32.85;21.42;;;;;;;;;;5025465;28;25050;-65
2024/03/10 08:40:10;;;;;;;31.80;21.20;;;;;;;;;;5024838;28;25050;-64
2024/03/10 08:42:41;;;;;;;30.40;20.52;;;;;;;;;;5020073;28;25116;-66
2024/03/10 08:45:10;;;;;;;31.33;21.23;;;;;;;;;;5028141;28;25068;-64
2024/03/10 08:47:40;;;;;;;26.35;19.23;;;;;;;;;;5006703;28;25128;-65
2024/03/10 08:50:12;;;;;;;32.03;20.95;;;;;;;;;;5001111;28;25068;-65
2024/03/10 08:52:38;;;;;;;;;;;;;;;;;;5001221;28;25056;-65
2024/03/10 08:55:05;;;;;;;31.73;21.20;;;;;;;;;;4996393;28;24073;-64
2024/03/10 08:57:32;;;;;;;30.25;21.17;;;;;;;;;;5017142;28;25075;-65
2024/03/10 09:00:00;;;;;;;31.00;22.40;;;;;;;;;;5018021;28;25077;-66
2024/03/10 09:02:26;;;;;;;30.48;20.15;;;;;;;;;;5016569;28;25067;-66
2024/03/10 09:04:52;;;;;;;30.38;20.92;;;;;;;;;;5013492;28;25155;-64
2024/03/10 09:07:18;;;;;;;28.88;20.15;;;;;;;;;;5015001;28;25089;-67
2024/03/10 09:09:44;;;;;;;30.67;21.30;;;;;;;;;;5019099;28;25147;-65
2024/03/10 09:12:10;;;;;;;31.80;21.80;;;;;;;;;;5014326;28;25067;-62
2024/03/10 09:14:37;;;;;;;27.88;20.73;;;;;;;;;;5016157;28;25148;-67
2024/03/10 09:17:03;;;;;;;32.25;21.52;;;;;;;;;;5015324;28;25144;-63
2024/03/10 09:19:30;;;;;;;27.63;21.30;;;;;;;;;;5009008;28;25048;-67
2024/03/10 09:21:57;;;;;;;29.90;20.42;;;;;;;;;;5023159;28;25076;-64
2024/03/10 09:24:23;;;;;;;31.58;21.85;;;;;;;;;;5020608;28;25133;-64
2024/03/10 09:26:49;;;;;;;31.42;22.58;;;;;;;;;;5022355;28;25068;-63
2024/03/10 09:29:15;;;;;;;30.55;21.33;;;;;;;;;;5019930;28;25087;-65
2024/03/10 09:31:44;;;;;;;27.58;20.23;;;;;;;;;;5024352;28;25052;-65
2024/03/10 09:34:11;;;;;;;33.42;21.95;;;;;;;;;;5022954;28;25086;-64
2024/03/10 09:36:37;;;;;;;29.67;21.02;;;;;;;;;;5028444;28;25069;-66
2024/03/10 09:39:04;;;;;;;30.08;20.75;;;;;;;;;;5026790;28;25084;-64
2024/03/10 09:41:31;;;;;;;28.25;20.23;;;;;;;;;;5021154;28;25040;-62
2024/03/10 09:43:58;;;;;;;28.98;21.35;;;;;;;;;;5019709;28;25159;-67
2024/03/10 09:46:24;;;;;;;31.38;22.50;;;;;;;;;;5017027;28;25061;-64
2024/03/10 09:48:50;;;;;;;31.23;21.55;;;;;;;;;;5018055;28;25121;-64
2024/03/10 09:51:17;;;;;;;30.33;21.92;;;;;;;;;;5023379;28;25073;-66
2024/03/10 09:53:48;;;;;;;32.17;20.85;;;;;;;;;;5014117;28;25071;-63
2024/03/10 09:56:14;;;;;;;31.85;22.13;;;;;;;;;;5017087;28;25079;-64
2024/03/10 09:59:00;;;;;;;30.17;21.70;;;;;;;;;;5021266;28;25059;-64
2024/03/10 10:01:27;;;;;;;31.08;22.38;;;;;;;;;;5014039;28;25145;-62
2024/03/10 10:03:54;;;;;;;32.45;22.17;;;;;;;;;;5017207;28;25111;-64
2024/03/10 10:06:20;;;;;;;31.92;21.88;;;;;;;;;;5019494;28;25058;-64
2024/03/10 10:08:53;;;;;;;27.83;21.13;;;;;;;;;;5020756;28;25059;-65
2024/03/10 10:11:19;;;;;;;26.77;20.73;;;;;;;;;;5036332;28;25076;-63
2024/03/10 10:14:05;;;;;;;32.22;22.98;;;;;;;;;;5036257;28;25073;-64
2024/03/10 10:16:32;;;;;;;30.48;21.50;;;;;;;;;;5034067;28;25061;-63
2024/03/10 10:18:59;;;;;;;30.77;21.92;;;;;;;;;;5022351;28;25105;-63
2024/03/10 10:21:28;;;;;;;29.05;20.90;;;;;;;;;;5015905;28;25053;-64
2024/03/10 10:23:54;;;;;;;29.02;21.52;;;;;;;;;;5013266;28;25060;-63
2024/03/10 10:26:20;;;;;;;30.52;21.92;;;;;;;;;;5016643;28;25141;-64
2024/03/10 10:28:46;;;;;;;27.98;20.40;;;;;;;;;;5012749;28;25065;-63
2024/03/10 10:31:16;;;;;;;29.85;21.42;;;;;;;;;;5016389;28;25061;-64
2024/03/10 10:33:45;;;;;;;33.38;23.20;;;;;;;;;;5015168;28;25056;-66
2024/03/10 10:36:11;;;;;;;28.25;20.73;;;;;;;;;;5020318;28;25077;-65
2024/03/10 10:38:37;;;;;;;29.67;22.27;;;;;;;;;;5021163;28;25138;-64
2024/03/10 10:41:05;;;;;;;31.60;24.00;;;;;;;;;;5015396;28;25071;-65
2024/03/10 10:43:37;;;;;;;30.85;21.90;;;;;;;;;;5021357;28;25075;-63
2024/03/10 10:46:04;;;;;;;27.30;21.20;;;;;;;;;;5019196;28;25049;-64
2024/03/10 10:48:30;;;;;;;32.42;23.15;;;;;;;;;;5019102;28;25074;-64
2024/03/10 10:50:58;;;;;;;28.58;22.25;;;;;;;;;;5017252;28;25059;-63
2024/03/10 10:53:25;;;;;;;31.13;21.65;;;;;;;;;;5022901;28;25061;-65
2024/03/10 10:55:51;;;;;;;29.35;20.90;;;;;;;;;;5017468;28;25071;-62
2024/03/10 10:58:19;;;;;;;28.27;21.33;;;;;;;;;;5017428;28;25071;-64
2024/03/10 11:00:51;;;;;;;33.53;21.65;;;;;;;;;;5024603;28;25065;-64
2024/03/10 11:03:18;;;;;;;29.23;21.40;;;;;;;;;;5021656;28;25062;-64
2024/03/10 11:05:47;;;;;;;30.70;20.65;;;;;;;;;;5023090;28;25052;-63
2024/03/10 11:08:14;;;;;;;28.65;22.15;;;;;;;;;;5020804;28;25052;-63
2024/03/10 11:10:42;;;;;;;29.02;21.20;;;;;;;;;;5023133;28;25120;-64
2024/03/10 11:13:09;;;;;;;29.02;21.90;;;;;;;;;;5021062;28;25074;-62
2024/03/10 11:15:36;;;;;;;34.80;22.90;;;;;;;;;;5019802;28;25145;-66
2024/03/10 11:18:21;;;;;;;30.67;21.90;;;;;;;;;;5019132;28;25083;-64
2024/03/10 11:20:48;;;;;;;30.45;22.45;;;;;;;;;;5021230;28;25156;-64
2024/03/10 11:23:14;;;;;;;29.85;22.38;;;;;;;;;;5021007;28;25058;-66
2024/03/10 11:25:49;;;;;;;29.83;21.83;;;;;;;;;;5022133;28;25163;-62
2024/03/10 11:28:15;;;;;;;30.65;22.48;;;;;;;;;;5015641;28;25060;-66
2024/03/10 11:30:44;;;;;;;31.85;22.25;;;;;;;;;;5016800;28;25088;-66
2024/03/10 11:33:13;;;;;;;30.92;21.70;;;;;;;;;;5023991;28;25079;-67
2024/03/10 11:35:40;;;;;;;31.83;21.73;;;;;;;;;;5024354;28;25076;-64
2024/03/10 11:38:09;;;;;;;29.40;21.63;;;;;;;;;;5026039;28;25067;-63
2024/03/10 11:40:36;;;;;;;28.13;21.67;;;;;;;;;;5027587;28;25078;-66
2024/03/10 11:43:03;;;;;;;28.20;20.48;;;;;;;;;;5022889;28;25096;-63
2024/03/10 11:45:29;;;;;;;32.15;22.73;;;;;;;;;;5026474;28;25106;-65
2024/03/10 11:47:55;;;;;;;30.80;22.25;;;;;;;;;;5022342;28;25046;-63
2024/03/10 11:50:21;;;;;;;35.22;23.23;;;;;;;;;;5025060;28;25099;-64
2024/03/10 11:52:48;;;;;;;33.63;22.52;;;;;;;;;;5024139;28;25083;-64
2024/03/10 11:55:18;;;;;;;35.63;22.95;;;;;;;;;;5023568;28;25093;-67
2024/03/10 11:57:44;;;;;;;30.38;21.58;;;;;;;;;;5025427;28;25063;-65
2024/03/10 12:00:14;;;;;;;30.90;22.58;;;;;;;;;;5024553;28;25079;-62
2024/03/10 12:02:40;;;;;;;29.17;21.15;;;;;;;;;;5023977;28;25060;-63
2024/03/10 12:05:08;;;;;;;32.65;21.70;;;;;;;;;;5024550;28;25053;-64
2024/03/10 12:07:35;;;;;;;30.10;22.23;;;;;;;;;;5023001;28;25071;-64
2024/03/10 12:10:08;;;;;;;29.55;22.77;;;;;;;;;;5023304;28;25134;-64
2024/03/10 12:12:35;;;;;;;31.08;21.63;;;;;;;;;;5025933;28;25150;-64
2024/03/10 12:15:04;;;;;;;28.48;21.17;;;;;;;;;;5026450;28;25066;-63
2024/03/10 12:17:30;;;;;;;31.08;22.15;;;;;;;;;;5021339;28;25151;-62
2024/03/10 12:19:58;;;;;;;32.83;21.38;;;;;;;;;;5027229;28;25069;-65
2024/03/10 12:22:24;;;;;;;29.50;21.13;;;;;;;;;;5041045;28;25056;-62
2024/03/10 12:24:53;;;;;;;32.45;22.67;;;;;;;;;;5042719;28;25074;-62
2024/03/10 12:27:21;;;;;;;26.85;21.48;;;;;;;;;;5043052;28;25065;-62
2024/03/10 12:29:48;;;;;;;29.38;22.08;;;;;;;;;;5036071;28;25072;-64
2024/03/10 12:32:14;;;;;;;30.67;22.48;;;;;;;;;;5027503;28;25121;-66
2024/03/10 12:34:41;;;;;;;30.67;22.90;;;;;;;;;;5025295;28;25070;-65
2024/03/10 12:37:07;;;;;;;31.27;22.75;;;;;;;;;;5031850;28;25070;-65
2024/03/10 12:39:33;;;;;;;28.45;22.65;;;;;;;;;;5024732;28;25087;-64
2024/03/10 12:41:59;;;;;;;29.92;20.48;;;;;;;;;;5022435;28;25143;-63
2024/03/10 12:44:25;;;;;;;28.27;21.27;;;;;;;;;;5020758;28;25066;-63
2024/03/10 12:46:51;;;;;;;30.42;21.77;;;;;;;;;;5027720;28;25111;-66
2024/03/10 12:49:17;;;;;;;28.70;21.67;;;;;;;;;;5022034;28;25056;-63
2024/03/10 12:51:43;;;;;;;27.77;20.88;;;;;;;;;;5027036;28;25078;-65
2024/03/10 12:54:09;;;;;;;28.88;22.17;;;;;;;;;;5020932;28;25087;-64
2024/03/10 12:56:35;;;;;;;29.38;20.98;;;;;;;;;;5024665;28;25087;-65
2024/03/10 12:59:03;;;;;;;28.23;20.08;;;;;;;;;;5023053;28;25075;-65
2024/03/10 13:01:32;;;;;;;29.13;22.40;;;;;;;;;;5022945;28;25071;-64
2024/03/10 13:03:58;;;;;;;29.40;22.30;;;;;;;;;;5021928;28;26255;-63
2024/03/10 13:06:24;;;;;;;30.27;22.35;;;;;;;;;;5024656;28;25163;-66
2024/03/10 13:08:50;;;;;;;28.45;21.15;;;;;;;;;;5023998;28;25050;-65
2024/03/10 13:11:17;;;;;;;28.98;21.98;;;;;;;;;;5027577;28;25072;-63
2024/03/10 13:13:43;;;;;;;31.65;21.88;;;;;;;;;;5025007;28;25057;-64
2024/03/10 13:16:10;;;;;;;33.10;22.70;;;;;;;;;;5026337;28;25068;-62
2024/03/10 13:18:36;;;;;;;27.60;20.77;;;;;;;;;;5025918;28;25060;-64
2024/03/10 13:21:02;;;;;;;30.45;22.33;;;;;;;;;;5022799;28;25115;-63
2024/03/10 13:23:29;;;;;;;26.40;20.50;;;;;;;;;;4997867;28;25079;-64
2024/03/10 13:25:55;;;;;;;28.98;22.27;;;;;;;;;;5001269;28;25064;-65
2024/03/10 13:28:22;;;;;;;29.17;21.40;;;;;;;;;;5000305;28;25072;-65
2024/03/10 13:30:49;;;;;;;28.70;22.30;;;;;;;;;;4998580;28;25059;-65
2024/03/10 13:33:15;;;;;;;28.80;22.35;;;;;;;;;;4991991;28;25070;-66
2024/03/10 13:35:41;;;;;;;30.65;22.73;;;;;;;;;;4996164;28;25147;-65
2024/03/10 13:38:07;;;;;;;31.00;22.30;;;;;;;;;;4999693;28;25074;-64
2024/03/10 13:40:33;;;;;;;29.35;22.02;;;;;;;;;;4994388;28;25067;-64
2024/03/10 13:42:59;;;;;;;27.02;21.83;;;;;;;;;;4994798;28;25141;-64
2024/03/10 13:45:25;;;;;;;27.35;21.30;;;;;;;;;;4999121;28;25055;-64
2024/03/10 13:47:51;;;;;;;30.00;21.25;;;;;;;;;;4997432;28;25096;-66
2024/03/10 13:50:19;;;;;;;31.27;22.33;;;;;;;;;;4991965;28;25048;-66
2024/03/10 13:52:45;;;;;;;27.30;21.42;;;;;;;;;;4996064;28;25134;-64
2024/03/10 13:55:12;;;;;;;29.02;20.98;;;;;;;;;;5001227;28;25068;-64
2024/03/10 13:57:41;;;;;;;30.23;21.27;;;;;;;;;;4998306;28;25156;-63
2024/03/10 14:00:18;;;;;;;27.65;20.38;;;;;;;;;;5003510;28;25101;-66
2024/03/10 14:02:45;;;;;;;27.83;21.08;;;;;;;;;;4999465;28;25053;-65
2024/03/10 14:05:11;;;;;;;32.55;22.73;;;;;;;;;;4996028;28;25056;-66
2024/03/10 14:07:38;;;;;;;31.40;20.75;;;;;;;;;;5000363;28;25065;-64
2024/03/10 14:10:07;;;;;;;28.80;20.35;;;;;;;;;;4996072;28;25063;-66
2024/03/10 14:12:33;;;;;;;30.08;21.48;;;;;;;;;;4993028;28;25172;-64
2024/03/10 14:14:59;;;;;;;29.92;21.73;;;;;;;;;;4995325;28;25081;-67
2024/03/10 14:17:25;;;;;;;31.05;21.27;;;;;;;;;;5001876;28;25099;-65
2024/03/10 14:19:51;;;;;;;29.38;23.08;;;;;;;;;;5003629;28;25057;-67
2024/03/10 14:22:24;;;;;;;30.45;22.38;;;;;;;;;;4996618;28;25164;-66
2024/03/10 14:24:50;;;;;;;34.05;25.20;;;;;;;;;;4996836;28;25117;-69
2024/03/10 14:27:16;;;;;;;28.83;21.10;;;;;;;;;;5000901;28;25096;-68
2024/03/10 14:29:42;;;;;;;29.30;21.63;;;;;;;;;;5000089;28;25080;-70
2024/03/10 14:32:09;;;;;;;29.67;21.88;;;;;;;;;;5004409;28;25079;-70
2024/03/10 14:34:35;;;;;;;30.20;21.15;;;;;;;;;;4997598;28;25078;-70
2024/03/10 14:37:01;;;;;;;28.38;21.33;;;;;;;;;;5000526;28;25043;-68
2024/03/10 14:39:27;;;;;;;27.38;20.77;;;;;;;;;;5001562;28;25090;-67
2024/03/10 14:41:53;;;;;;;31.48;21.48;;;;;;;;;;5024276;28;25060;-69